createdAt,value
2018-04-17T00:01:28.276Z,99.30
2018-04-17T00:03:55.832Z,87.17
2018-04-17T00:06:23.408Z,96.43
2018-04-17T00:08:51.000Z,113.63
2018-04-17T00:11:18.569Z,87.50
2018-04-17T00:13:46.123Z,96.00
2018-04-17T00:16:13.694Z,99.10
2018-04-17T00:18:41.255Z,97.70
2018-04-17T00:21:09.587Z,95.77
2018-04-17T00:23:37.146Z,113.27
2018-04-17T00:26:04.728Z,111.93
2018-04-17T00:28:32.288Z,119.47
2018-04-17T00:30:59.867Z,126.93
2018-04-17T00:33:27.463Z,114.00
2018-04-17T00:35:55.036Z,110.40
2018-04-17T00:38:22.590Z,106.93
2018-04-17T00:40:50.140Z,97.57
2018-04-17T00:43:18.633Z,100.60
2018-04-17T00:45:46.189Z,104.33
2018-04-17T00:48:13.772Z,111.50
2018-04-17T00:50:41.332Z,85.97
2018-04-17T00:53:20.703Z,95.70
2018-04-17T00:55:48.252Z,100.83
2018-04-17T00:58:15.837Z,106.67
2018-04-17T01:00:43.413Z,107.47
2018-04-17T01:03:10.984Z,104.53
2018-04-17T01:05:38.544Z,115.47
2018-04-17T01:08:06.119Z,108.23
2018-04-17T01:10:33.706Z,96.30
2018-04-17T01:13:01.296Z,110.70
2018-04-17T01:15:28.860Z,112.50
2018-04-17T01:17:56.433Z,103.37
2018-04-17T01:20:23.988Z,98.67
2018-04-17T01:22:51.568Z,121.57
2018-04-17T01:25:19.124Z,114.70
2018-04-17T01:27:46.696Z,129.40
2018-04-17T01:30:14.245Z,98.90
2018-04-17T01:32:42.586Z,102.40
2018-04-17T01:35:10.134Z,99.20
2018-04-17T01:37:37.719Z,93.23
2018-04-17T01:40:05.272Z,103.10
2018-04-17T01:42:32.836Z,98.80
2018-04-17T01:45:00.383Z,101.13
2018-04-17T01:47:27.960Z,106.97
2018-04-17T01:49:56.272Z,299.93
2018-04-17T01:52:23.814Z,83.67
2018-04-17T01:54:51.387Z,81.27
2018-04-17T01:57:18.935Z,89.63
2018-04-17T01:59:46.522Z,95.50
2018-04-17T02:02:14.071Z,101.47
2018-04-17T02:04:41.642Z,117.00
2018-04-17T02:07:09.185Z,159.33
2018-04-17T02:09:36.751Z,147.20
2018-04-17T02:12:04.303Z,150.37
2018-04-17T02:14:32.635Z,135.87
2018-04-17T02:17:00.184Z,122.47
2018-04-17T02:19:27.746Z,109.80
2018-04-17T02:21:55.303Z,133.57
2018-04-17T02:24:23.645Z,142.53
2018-04-17T02:26:51.191Z,159.53
2018-04-17T02:29:18.759Z,148.23
2018-04-17T02:31:46.311Z,130.13
2018-04-17T02:34:14.655Z,139.27
2018-04-17T02:36:43.816Z,151.10
2018-04-17T02:39:11.387Z,143.73
2018-04-17T02:41:39.706Z,144.97
2018-04-17T02:44:07.271Z,159.50
2018-04-17T02:46:34.816Z,146.27
2018-04-17T02:49:03.161Z,129.80
2018-04-17T02:51:30.716Z,113.97
2018-04-17T02:53:58.286Z,107.40
2018-04-17T02:56:25.845Z,107.37
2018-04-17T02:58:53.421Z,116.50
2018-04-17T03:01:24.129Z,121.77
2018-04-17T03:03:52.467Z,138.50
2018-04-17T03:06:20.006Z,155.20
2018-04-17T03:08:47.550Z,152.37
2018-04-17T03:11:15.121Z,177.43
2018-04-17T03:13:42.667Z,186.30
2018-04-17T03:16:10.234Z,189.50
2018-04-17T03:18:37.778Z,188.17
2018-04-17T03:21:05.339Z,195.70
2018-04-17T03:23:32.882Z,179.77
2018-04-17T03:26:00.448Z,174.53
2018-04-17T03:28:27.991Z,189.80
2018-04-17T03:30:55.556Z,163.70
2018-04-17T03:33:23.109Z,166.00
2018-04-17T03:35:50.683Z,152.07
2018-04-17T03:38:18.231Z,154.97
2018-04-17T03:40:46.568Z,156.57
2018-04-17T03:43:14.131Z,154.87
2018-04-17T03:45:41.779Z,151.40
2018-04-17T03:48:09.326Z,147.67
2018-04-17T03:50:37.664Z,154.50
2018-04-17T03:53:05.215Z,140.73
2018-04-17T03:55:32.786Z,150.90
2018-04-17T03:58:00.337Z,142.40
2018-04-17T04:00:28.666Z,144.80
2018-04-17T04:02:56.220Z,142.13
2018-04-17T04:05:23.787Z,147.43
2018-04-17T04:07:51.372Z,133.63
2018-04-17T04:10:18.943Z,153.47
2018-04-17T04:12:47.260Z,144.17
2018-04-17T04:15:14.823Z,137.47
2018-04-17T04:17:54.302Z,159.80
2018-04-17T04:20:33.706Z,141.47
2018-04-17T04:23:13.202Z,120.47
2018-04-17T04:28:49.012Z,127.20
2018-04-17T04:31:16.591Z,142.07
2018-04-17T04:33:44.146Z,127.63
2018-04-17T04:36:11.718Z,133.90
2018-04-17T04:38:39.271Z,172.33
2018-04-17T04:41:06.826Z,155.87
2018-04-17T04:43:34.396Z,156.60
2018-04-17T04:46:01.947Z,134.80
2018-04-17T04:48:29.595Z,139.03
2018-04-17T04:50:57.907Z,125.07
2018-04-17T04:53:25.475Z,125.57
2018-04-17T04:55:53.024Z,107.23
2018-04-17T04:58:21.358Z,93.17
2018-04-17T05:00:48.912Z,95.80
2018-04-17T05:03:16.475Z,88.53
2018-04-17T05:05:44.025Z,92.60
2018-04-17T05:08:12.354Z,85.43
2018-04-17T05:10:39.903Z,91.90
2018-04-17T05:13:07.487Z,95.17
2018-04-17T05:15:35.045Z,90.27
2018-04-17T05:18:03.378Z,100.80
2018-04-17T05:20:30.923Z,98.50
2018-04-17T05:22:58.491Z,98.00
2018-04-17T05:25:26.038Z,113.20
2018-04-17T05:27:54.374Z,111.60
2018-04-17T05:30:21.918Z,129.07
2018-04-17T05:32:49.491Z,110.60
2018-04-17T05:35:17.045Z,105.70
2018-04-17T05:37:45.387Z,100.90
2018-04-17T05:40:12.955Z,107.03
2018-04-17T05:42:40.538Z,108.57
2018-04-17T05:45:08.111Z,119.60
2018-04-17T05:47:36.485Z,113.67
2018-04-17T05:50:04.047Z,104.90
2018-04-17T05:52:31.603Z,101.63
2018-04-17T05:54:59.175Z,93.77
2018-04-17T05:57:26.727Z,90.87
2018-04-17T05:59:55.063Z,91.73
2018-04-17T06:02:22.611Z,106.30
2018-04-17T06:04:50.182Z,86.90
2018-04-17T06:07:17.731Z,95.23
2018-04-17T06:09:46.068Z,79.47
2018-04-17T06:12:13.618Z,92.40
2018-04-17T06:14:41.188Z,82.70
2018-04-17T06:17:08.737Z,87.93
2018-04-17T06:19:37.078Z,86.37
2018-04-17T06:22:04.627Z,91.80
2018-04-17T06:24:32.191Z,76.43
2018-04-17T06:26:59.742Z,96.27
2018-04-17T06:29:28.079Z,85.07
2018-04-17T06:31:55.630Z,76.67
2018-04-17T06:34:23.199Z,83.83
2018-04-17T06:36:50.750Z,76.93
2018-04-17T06:39:19.084Z,76.67
2018-04-17T06:41:46.720Z,77.90
2018-04-17T06:44:14.230Z,76.33
2018-04-17T06:46:42.115Z,72.07
2018-04-17T06:49:09.680Z,76.77
2018-04-17T06:51:37.227Z,64.87
2018-04-17T06:54:04.823Z,66.00
2018-04-17T06:56:32.369Z,60.30
2018-04-17T06:58:59.948Z,59.77
2018-04-17T07:01:27.490Z,62.20
2018-04-17T07:03:55.802Z,57.30
2018-04-17T07:06:23.382Z,59.20
2018-04-17T07:08:50.946Z,44.83
2018-04-17T07:11:18.524Z,47.00
2018-04-17T07:13:46.071Z,57.40
2018-04-17T07:16:14.403Z,40.20
2018-04-17T07:18:41.955Z,39.67
2018-04-17T07:21:09.525Z,29.87
2018-04-17T07:23:37.112Z,34.37
2018-04-17T07:26:04.671Z,31.00
2018-04-17T07:28:32.250Z,28.10
2018-04-17T07:30:59.825Z,27.07
2018-04-17T07:33:27.373Z,32.63
2018-04-17T07:35:54.950Z,27.90
2018-04-17T07:38:22.507Z,23.83
2018-04-17T07:40:50.846Z,21.00
2018-04-17T07:43:18.402Z,18.27
2018-04-17T07:45:45.967Z,17.17
2018-04-17T07:51:16.010Z,19.20
2018-04-17T07:53:43.583Z,17.80
2018-04-17T07:56:11.167Z,25.40
2018-04-17T07:58:38.718Z,26.53
2018-04-17T08:01:07.053Z,25.17
2018-04-17T08:03:34.603Z,30.10
2018-04-17T08:06:02.210Z,25.07
2018-04-17T08:08:29.759Z,25.83
2018-04-17T08:10:57.327Z,26.07
2018-04-17T08:13:24.872Z,25.47
2018-04-17T08:15:53.223Z,31.53
2018-04-17T08:18:20.783Z,29.83
2018-04-17T08:20:48.333Z,31.37
2018-04-17T08:23:15.905Z,23.93
2018-04-17T08:25:43.459Z,23.13
2018-04-17T08:28:11.038Z,18.80
2018-04-17T08:30:38.578Z,13.80
2018-04-17T08:33:06.907Z,11.73
2018-04-17T08:35:34.454Z,11.90
2018-04-17T08:38:02.900Z,11.80
2018-04-17T08:40:30.455Z,21.33
2018-04-17T08:42:58.023Z,13.23
2018-04-17T08:45:25.567Z,16.60
2018-04-17T08:47:53.918Z,13.23
2018-04-17T08:50:21.459Z,11.17
2018-04-17T08:52:49.784Z,14.80
2018-04-17T08:55:17.338Z,16.23
2018-04-17T08:57:44.908Z,15.70
2018-04-17T09:00:12.451Z,13.63
2018-04-17T09:02:40.014Z,15.20
2018-04-17T09:05:07.564Z,11.13
2018-04-17T09:07:35.135Z,11.03
2018-04-17T09:10:03.447Z,11.70
2018-04-17T09:12:31.006Z,7.80
2018-04-17T09:14:58.547Z,7.50
2018-04-17T09:17:26.120Z,6.03
2018-04-17T09:19:53.701Z,11.70
2018-04-17T09:22:22.035Z,10.20
2018-04-17T09:24:49.586Z,15.00
2018-04-17T09:27:17.161Z,9.03
2018-04-17T09:29:44.711Z,11.07
2018-04-17T09:32:13.069Z,12.27
2018-04-17T09:34:40.606Z,16.53
2018-04-17T09:37:08.181Z,11.70
2018-04-17T09:39:35.724Z,11.17
2018-04-17T09:42:04.066Z,10.07
2018-04-17T09:44:31.623Z,6.00
2018-04-17T09:46:59.191Z,7.97
2018-04-17T09:49:26.735Z,9.60
2018-04-17T09:51:54.302Z,6.17
2018-04-17T09:54:22.614Z,12.77
2018-04-17T09:56:50.184Z,13.90
2018-04-17T09:59:17.727Z,11.10
2018-04-17T10:01:46.040Z,12.43
2018-04-17T10:04:13.607Z,12.57
2018-04-17T10:06:41.146Z,9.37
2018-04-17T10:09:08.866Z,8.30
2018-04-17T10:11:36.369Z,10.23
2018-04-17T10:14:03.934Z,9.50
2018-04-17T10:16:31.483Z,7.13
2018-04-17T10:18:59.054Z,12.87
2018-04-17T10:21:26.647Z,6.17
2018-04-17T10:23:54.210Z,11.80
2018-04-17T10:26:21.750Z,8.70
2018-04-17T10:28:49.315Z,12.03
2018-04-17T10:31:17.623Z,6.30
2018-04-17T10:33:45.182Z,8.10
2018-04-17T10:36:12.729Z,15.70
2018-04-17T10:38:40.294Z,8.50
2018-04-17T10:41:07.835Z,11.20
2018-04-17T10:43:35.403Z,10.83
2018-04-17T10:46:02.953Z,14.70
2018-04-17T10:48:30.525Z,10.83
2018-04-17T10:50:58.071Z,14.00
2018-04-17T10:53:26.403Z,6.90
2018-04-17T10:55:53.981Z,8.53
2018-04-17T10:58:21.527Z,8.57
2018-04-17T11:00:49.074Z,7.67
2018-04-17T11:03:17.434Z,8.07
2018-04-17T11:05:44.970Z,10.67
2018-04-17T11:08:12.535Z,14.17
2018-04-17T11:10:40.074Z,7.03
2018-04-17T11:13:08.407Z,9.90
2018-04-17T11:15:35.955Z,9.87
2018-04-17T11:18:03.524Z,10.63
2018-04-17T11:20:31.083Z,12.53
2018-04-17T11:22:59.410Z,17.60
2018-04-17T11:25:26.957Z,6.43
2018-04-17T11:27:54.523Z,5.80
2018-04-17T11:30:22.831Z,8.63
2018-04-17T11:32:50.387Z,8.20
2018-04-17T11:35:17.935Z,12.73
2018-04-17T11:37:46.248Z,6.83
2018-04-17T11:40:13.818Z,9.30
2018-04-17T11:42:41.363Z,7.77
2018-04-17T11:45:09.076Z,5.60
2018-04-17T11:47:36.628Z,8.90
2018-04-17T11:50:04.967Z,10.73
2018-04-17T11:52:32.510Z,6.60
2018-04-17T11:55:00.077Z,7.00
2018-04-17T11:57:27.660Z,13.20
2018-04-17T11:59:55.255Z,11.30
2018-04-17T12:02:22.840Z,13.50
2018-04-17T12:04:50.389Z,10.30
2018-04-17T12:07:17.935Z,7.97
2018-04-17T12:09:45.494Z,6.63
2018-04-17T12:12:13.043Z,11.00
2018-04-17T12:14:40.639Z,7.97
2018-04-17T12:17:08.946Z,7.50
2018-04-17T12:19:36.506Z,7.37
2018-04-17T12:22:04.046Z,10.33
2018-04-17T12:24:31.625Z,8.47
2018-04-17T12:26:59.931Z,8.97
2018-04-17T12:29:27.537Z,13.10
2018-04-17T12:31:55.088Z,10.27
2018-04-17T12:34:22.655Z,10.47
2018-04-17T12:36:50.195Z,8.30
2018-04-17T12:39:17.764Z,7.17
2018-04-17T12:41:45.330Z,11.10
2018-04-17T12:44:13.677Z,7.20
2018-04-17T12:46:41.223Z,6.60
2018-04-17T12:49:08.795Z,11.37
2018-04-17T12:51:36.350Z,10.30
2018-04-17T12:54:04.683Z,7.43
2018-04-17T12:56:32.327Z,12.70
2018-04-17T12:59:00.663Z,10.80
2018-04-17T13:01:28.311Z,7.13
2018-04-17T13:03:56.139Z,10.33
2018-04-17T13:06:23.675Z,9.70
2018-04-17T13:08:51.290Z,11.10
2018-04-17T13:11:18.994Z,11.87
2018-04-17T13:13:46.809Z,7.40
2018-04-17T13:16:15.737Z,9.93
2018-04-17T13:18:43.572Z,7.23
2018-04-17T13:21:12.076Z,16.67
2018-04-17T13:23:39.615Z,6.77
2018-04-17T13:26:07.948Z,7.70
2018-04-17T13:28:35.500Z,9.50
2018-04-17T13:31:03.071Z,5.73
2018-04-17T13:33:30.614Z,12.03
2018-04-17T13:35:58.942Z,8.70
2018-04-17T13:38:26.486Z,15.23
2018-04-17T13:40:54.078Z,8.60
2018-04-17T13:43:21.619Z,6.87
2018-04-17T13:45:49.947Z,8.23
2018-04-17T13:48:17.510Z,7.67
2018-04-17T13:50:45.087Z,9.43
2018-04-17T13:53:12.636Z,9.63
2018-04-17T13:55:40.223Z,8.83
2018-04-17T13:58:08.156Z,7.50
2018-04-17T14:00:35.854Z,7.30
2018-04-17T14:03:03.426Z,10.57
2018-04-17T14:05:31.765Z,10.50
2018-04-17T14:07:59.313Z,13.87
2018-04-17T14:10:26.888Z,18.17
2018-04-17T14:12:54.447Z,13.20
2018-04-17T14:15:22.009Z,13.03
2018-04-17T14:17:49.559Z,13.47
2018-04-17T14:20:17.887Z,9.07
2018-04-17T14:22:45.431Z,17.37
2018-04-17T14:25:13.768Z,12.53
2018-04-17T14:27:41.312Z,6.80
2018-04-17T14:30:08.883Z,10.20
2018-04-17T14:32:36.438Z,10.27
2018-04-17T14:35:04.906Z,13.30
2018-04-17T14:37:32.520Z,3.87
2018-04-17T14:40:00.083Z,6.50
2018-04-17T14:42:27.627Z,13.53
2018-04-17T14:44:55.201Z,10.37
2018-04-17T14:47:22.754Z,14.30
2018-04-17T14:49:50.364Z,4.13
2018-04-17T14:52:17.877Z,8.83
2018-04-17T14:54:45.436Z,8.13
2018-04-17T14:57:12.984Z,6.10
2018-04-17T14:59:40.549Z,9.57
2018-04-17T15:02:08.854Z,17.03
2018-04-17T15:04:36.419Z,14.07
2018-04-17T15:07:03.963Z,8.20
2018-04-17T15:09:31.510Z,5.13
2018-04-17T15:11:59.075Z,10.23
2018-04-17T15:14:26.619Z,15.73
2018-04-17T15:16:54.195Z,12.80
2018-04-17T15:19:22.512Z,8.63
2018-04-17T15:21:50.078Z,6.73
2018-04-17T15:24:17.675Z,9.97
2018-04-17T15:26:45.237Z,9.20
2018-04-17T15:29:13.547Z,8.23
2018-04-17T15:31:41.881Z,11.00
2018-04-17T15:34:09.424Z,8.10
2018-04-17T15:36:37.755Z,8.43
2018-04-17T15:39:06.223Z,7.47
2018-04-17T15:41:33.795Z,7.60
2018-04-17T15:44:01.348Z,9.10
2018-04-17T15:46:29.683Z,9.30
2018-04-17T15:48:57.232Z,7.77
2018-04-17T15:51:25.563Z,6.67
2018-04-17T15:53:53.107Z,12.13
2018-04-17T15:56:20.678Z,8.87
2018-04-17T15:58:48.225Z,17.17
2018-04-17T16:01:15.801Z,13.07
2018-04-17T16:03:43.418Z,14.40
2018-04-17T16:06:10.938Z,14.97
2018-04-17T16:08:38.475Z,2.93
2018-04-17T16:11:06.042Z,15.23
2018-04-17T16:13:33.648Z,7.03
2018-04-17T16:16:01.218Z,8.10
2018-04-17T16:18:29.538Z,16.93
2018-04-17T16:20:57.104Z,6.53
2018-04-17T16:23:24.656Z,12.03
2018-04-17T16:25:52.223Z,11.30
2018-04-17T16:28:19.774Z,3.90
2018-04-17T16:30:47.341Z,11.67
2018-04-17T16:33:15.664Z,7.23
2018-04-17T16:35:43.227Z,5.47
2018-04-17T16:38:10.782Z,14.60
2018-04-17T16:40:39.122Z,18.03
2018-04-17T16:43:06.667Z,9.00
2018-04-17T16:45:34.222Z,9.73
2018-04-17T16:48:02.529Z,12.83
2018-04-17T16:50:30.120Z,10.10
2018-04-17T16:52:57.675Z,9.60
2018-04-17T16:55:25.252Z,9.30
2018-04-17T16:57:52.865Z,8.70
2018-04-17T17:00:20.425Z,5.57
2018-04-17T17:02:47.990Z,7.73
2018-04-17T17:05:15.540Z,10.00
2018-04-17T17:07:43.103Z,7.47
2018-04-17T17:10:10.651Z,8.73
2018-04-17T17:12:38.974Z,8.30
2018-04-17T17:15:06.519Z,10.07
2018-04-17T17:17:34.851Z,9.67
2018-04-17T17:20:02.394Z,10.37
2018-04-17T17:22:29.950Z,8.03
2018-04-17T17:24:58.264Z,8.00
2018-04-17T17:27:25.859Z,9.67
2018-04-17T17:29:53.403Z,5.43
2018-04-17T17:32:20.981Z,14.50
2018-04-17T17:34:48.526Z,7.53
2018-04-17T17:37:16.865Z,10.20
2018-04-17T17:39:44.406Z,8.60
2018-04-17T17:42:11.970Z,8.73
2018-04-17T17:44:39.523Z,16.20
2018-04-17T17:47:07.855Z,8.10
2018-04-17T17:49:35.406Z,6.27
2018-04-17T17:52:03.006Z,8.30
2018-04-17T17:54:30.579Z,13.63
2018-04-17T17:56:58.182Z,8.30
2018-04-17T17:59:25.727Z,8.23
2018-04-17T18:01:53.287Z,5.93
2018-04-17T18:04:20.827Z,5.83
2018-04-17T18:06:49.158Z,8.87
2018-04-17T18:09:16.700Z,6.57
2018-04-17T18:11:44.259Z,9.87
2018-04-17T18:14:12.577Z,10.57
2018-04-17T18:16:40.164Z,5.50
2018-04-17T18:19:07.702Z,4.37
2018-04-17T18:21:35.242Z,7.40
2018-04-17T18:24:02.811Z,8.13
2018-04-17T18:26:30.357Z,6.47
2018-04-17T18:28:57.938Z,4.97
2018-04-17T18:31:25.482Z,6.17
2018-04-17T18:33:53.042Z,11.63
2018-04-17T18:36:20.587Z,8.40
2018-04-17T18:38:48.928Z,10.83
2018-04-17T18:41:16.472Z,7.00
2018-04-17T18:43:44.046Z,5.60
2018-04-17T18:46:11.599Z,17.63
2018-04-17T18:48:39.927Z,6.13
2018-04-17T18:51:07.507Z,6.20
2018-04-17T18:53:35.091Z,8.40
2018-04-17T18:56:02.655Z,5.70
2018-04-17T18:58:30.194Z,8.30
2018-04-17T19:00:57.764Z,6.10
2018-04-17T19:03:25.311Z,7.40
2018-04-17T19:05:53.643Z,9.23
2018-04-17T19:08:21.192Z,11.37
2018-04-17T19:10:48.753Z,7.00
2018-04-17T19:13:16.349Z,6.57
2018-04-17T19:15:43.918Z,9.00
2018-04-17T19:18:11.499Z,7.93
2018-04-17T19:20:39.068Z,6.30
2018-04-17T19:23:06.666Z,9.43
2018-04-17T19:25:34.350Z,7.30
2018-04-17T19:28:01.914Z,9.00
2018-04-17T19:30:29.496Z,10.57
2018-04-17T19:32:57.050Z,8.43
2018-04-17T19:35:24.655Z,12.67
2018-04-17T19:37:52.208Z,10.50
2018-04-17T19:40:19.794Z,9.07
2018-04-17T19:42:47.379Z,6.93
2018-04-17T19:45:15.707Z,4.63
2018-04-17T19:47:43.256Z,8.97
2018-04-17T19:50:11.587Z,4.80
2018-04-17T19:52:39.127Z,4.03
2018-04-17T19:55:06.695Z,4.43
2018-04-17T19:57:35.247Z,7.17
2018-04-17T20:00:02.834Z,7.03
2018-04-17T20:02:30.379Z,7.40
2018-04-17T20:04:57.921Z,4.83
2018-04-17T20:07:25.488Z,4.20
2018-04-17T20:09:53.027Z,5.00
2018-04-17T20:12:20.593Z,8.10
2018-04-17T20:14:48.140Z,4.23
2018-04-17T20:17:15.715Z,15.43
2018-04-17T20:19:43.264Z,7.80
2018-04-17T20:22:10.826Z,3.97
2018-04-17T20:24:38.378Z,28.13
2018-04-17T20:27:05.973Z,33.67
2018-04-17T20:29:33.955Z,36.10
2018-04-17T20:32:01.574Z,35.73
2018-04-17T20:34:29.923Z,34.30
2018-04-17T20:36:57.486Z,23.13
2018-04-17T20:39:25.027Z,14.67
2018-04-17T20:41:53.386Z,27.50
2018-04-17T20:44:20.933Z,15.33
2018-04-17T20:46:48.516Z,11.07
2018-04-17T20:49:16.076Z,12.87
2018-04-17T20:51:43.631Z,12.93
2018-04-17T20:54:11.169Z,8.83
2018-04-17T20:56:39.494Z,5.20
2018-04-17T20:59:07.037Z,16.53
2018-04-17T21:01:35.378Z,15.67
2018-04-17T21:04:02.924Z,14.17
2018-04-17T21:06:30.512Z,11.13
2018-04-17T21:08:58.067Z,11.50
2018-04-17T21:11:25.614Z,12.23
2018-04-17T21:13:53.946Z,12.80
2018-04-17T21:16:21.491Z,9.57
2018-04-17T21:18:49.051Z,16.53
2018-04-17T21:21:17.366Z,14.33
2018-04-17T21:23:44.927Z,13.97
2018-04-17T21:26:12.475Z,12.63
2018-04-17T21:28:40.812Z,12.00
2018-04-17T21:31:08.350Z,9.23
2018-04-17T21:33:36.683Z,4.50
2018-04-17T21:36:04.291Z,12.70
2018-04-17T21:38:31.882Z,10.97
2018-04-17T21:41:00.192Z,10.70
2018-04-17T21:43:27.750Z,7.30
2018-04-17T21:45:55.291Z,15.27
2018-04-17T21:48:22.855Z,8.90
2018-04-17T21:50:50.391Z,9.97
2018-04-17T21:53:17.955Z,11.20
2018-04-17T21:55:45.506Z,17.13
2018-04-17T21:58:13.071Z,11.50
2018-04-17T22:00:41.378Z,8.63
2018-04-17T22:03:08.935Z,15.30
2018-04-17T22:05:37.239Z,16.50
2018-04-17T22:08:04.810Z,13.00
2018-04-17T22:10:32.350Z,11.93
2018-04-17T22:12:59.911Z,8.83
2018-04-17T22:15:27.454Z,15.47
2018-04-17T22:17:55.000Z,10.13
2018-04-17T22:20:22.562Z,8.20
2018-04-17T22:22:50.862Z,19.30
2018-04-17T22:25:18.424Z,11.30
2018-04-17T22:27:46.741Z,8.10
2018-04-17T22:30:14.299Z,5.63
2018-04-17T22:32:41.846Z,10.33
2018-04-17T22:35:10.166Z,9.07
2018-04-17T22:37:37.711Z,10.90
2018-04-17T22:40:06.099Z,13.67
2018-04-17T22:42:34.409Z,6.10
2018-04-17T22:45:01.975Z,14.03
2018-04-17T22:47:29.520Z,11.67
2018-04-17T22:49:57.087Z,8.60
2018-04-17T22:52:24.630Z,9.80
2018-04-17T22:54:52.178Z,8.20
2018-04-17T22:57:19.713Z,4.10
2018-04-17T22:59:48.034Z,8.63
2018-04-17T23:02:15.951Z,13.50
2018-04-17T23:04:43.514Z,10.27
2018-04-17T23:07:11.078Z,12.87
2018-04-17T23:09:38.641Z,16.13
2018-04-17T23:12:06.183Z,16.63
2018-04-17T23:14:34.555Z,19.40
2018-04-17T23:17:02.079Z,10.17
2018-04-17T23:19:29.638Z,8.53
2018-04-17T23:21:57.179Z,11.20
2018-04-17T23:24:25.532Z,14.10
2018-04-17T23:26:53.074Z,12.33
2018-04-17T23:29:20.609Z,5.80
2018-04-17T23:31:48.932Z,6.20
2018-04-17T23:34:16.466Z,7.53
2018-04-17T23:36:44.791Z,5.53
2018-04-17T23:39:12.343Z,13.60
2018-04-17T23:41:39.894Z,9.30
2018-04-17T23:44:08.198Z,9.43
2018-04-17T23:46:36.531Z,11.33
2018-04-17T23:49:04.071Z,10.83
2018-04-17T23:51:31.631Z,15.27
2018-04-17T23:53:59.938Z,12.27
2018-04-17T23:56:27.513Z,16.87
2018-04-17T23:58:55.043Z,9.07
